sensor_id;sensor_type;location;lat;lon;timestamp;pressure;altitude;pressure_sealevel;temperature;humidity
19086;BME280;9675;51.538;6.728;2022-12-07T00:01:48;101384.97;;;5.38;100.00
19086;BME280;9675;51.538;6.728;2022-12-07T00:04:17;101390.72;;;5.35;100.00
19086;BME280;9675;51.538;6.728;2022-12-07T00:06:47;101383.94;;;5.36;100.00
19086;BME280;9675;51.538;6.728;2022-12-07T00:09:17;101375.38;;;5.35;100.00
19086;BME280;9675;51.538;6.728;2022-12-07T00:11:49;101372.69;;;5.34;100.00
19086;BME280;9675;51.538;6.728;2022-12-07T00:14:18;101376.94;;;5.33;100.00
19086;BME280;9675;51.538;6.728;2022-12-07T00:16:50;101372.69;;;5.34;100.00
19086;BME280;9675;51.538;6.728;2022-12-07T00:19:17;101371.84;;;5.33;100.00
19086;BME280;9675;51.538;6.728;2022-12-07T00:21:44;101378.47;;;5.31;100.00
19086;BME280;9675;51.538;6.728;2022-12-07T00:24:12;101382.69;;;5.31;100.00
19086;BME280;9675;51.538;6.728;2022-12-07T00:26:41;101378.47;;;5.31;100.00
19086;BME280;9675;51.538;6.728;2022-12-07T00:29:15;101382.06;;;5.33;100.00
19086;BME280;9675;51.538;6.728;2022-12-07T00:31:42;101366.47;;;5.30;100.00
19086;BME280;9675;51.538;6.728;2022-12-07T00:34:14;101369.16;;;5.32;100.00
19086;BME280;9675;51.538;6.728;2022-12-07T00:36:42;101348.47;;;5.29;100.00
19086;BME280;9675;51.538;6.728;2022-12-07T00:39:09;101361.38;;;5.30;100.00
19086;BME280;9675;51.538;6.728;2022-12-07T00:41:36;101358.06;;;5.31;100.00
19086;BME280;9675;51.538;6.728;2022-12-07T00:44:03;101356.13;;;5.29;100.00
19086;BME280;9675;51.538;6.728;2022-12-07T00:46:30;101358.69;;;5.29;100.00
19086;BME280;9675;51.538;6.728;2022-12-07T00:48:58;101354.38;;;5.28;100.00
19086;BME280;9675;51.538;6.728;2022-12-07T00:51:26;101359.59;;;5.29;100.00
19086;BME280;9675;51.538;6.728;2022-12-07T00:53:53;101357.03;;;5.29;100.00
19086;BME280;9675;51.538;6.728;2022-12-07T00:56:23;101356.13;;;5.29;100.00
19086;BME280;9675;51.538;6.728;2022-12-07T00:58:52;101356.13;;;5.29;100.00
19086;BME280;9675;51.538;6.728;2022-12-07T01:01:20;101354.47;;;5.29;100.00
19086;BME280;9675;51.538;6.728;2022-12-07T01:03:47;101354.47;;;5.29;100.00
19086;BME280;9675;51.538;6.728;2022-12-07T01:06:15;101348.47;;;5.29;100.00
19086;BME280;9675;51.538;6.728;2022-12-07T01:08:45;101344.16;;;5.28;100.00
19086;BME280;9675;51.538;6.728;2022-12-07T01:11:15;101345.81;;;5.27;100.00
19086;BME280;9675;51.538;6.728;2022-12-07T01:13:43;101344.03;;;5.26;100.00
19086;BME280;9675;51.538;6.728;2022-12-07T01:16:14;101345.56;;;5.24;100.00
19086;BME280;9675;51.538;6.728;2022-12-07T01:18:45;101343.00;;;5.24;100.00
19086;BME280;9675;51.538;6.728;2022-12-07T01:21:15;101347.22;;;5.24;100.00
19086;BME280;9675;51.538;6.728;2022-12-07T01:23:44;101343.81;;;5.23;100.00
19086;BME280;9675;51.538;6.728;2022-12-07T01:26:14;101342.03;;;5.22;100.00
19086;BME280;9675;51.538;6.728;2022-12-07T01:28:41;101353.00;;;5.21;100.00
19086;BME280;9675;51.538;6.728;2022-12-07T01:31:11;101350.44;;;5.21;100.00
19086;BME280;9675;51.538;6.728;2022-12-07T01:33:42;101349.56;;;5.21;100.00
19086;BME280;9675;51.538;6.728;2022-12-07T01:36:17;101350.31;;;5.20;100.00
19086;BME280;9675;51.538;6.728;2022-12-07T01:38:48;101345.13;;;5.18;100.00
19086;BME280;9675;51.538;6.728;2022-12-07T01:41:17;101340.78;;;5.17;100.00
19086;BME280;9675;51.538;6.728;2022-12-07T01:44:13;101350.84;;;5.16;100.00
19086;BME280;9675;51.538;6.728;2022-12-07T01:46:42;101355.06;;;5.15;100.00
19086;BME280;9675;51.538;6.728;2022-12-07T01:49:17;101354.03;;;5.13;100.00
19086;BME280;9675;51.538;6.728;2022-12-07T01:51:47;101348.16;;;5.14;100.00
19086;BME280;9675;51.538;6.728;2022-12-07T01:54:18;101356.59;;;5.13;100.00
19086;BME280;9675;51.538;6.728;2022-12-07T01:56:51;101354.94;;;5.13;100.00
19086;BME280;9675;51.538;6.728;2022-12-07T01:59:23;101355.72;;;5.12;100.00
19086;BME280;9675;51.538;6.728;2022-12-07T02:01:52;101346.69;;;5.06;100.00
19086;BME280;9675;51.538;6.728;2022-12-07T02:04:21;101354.84;;;5.12;100.00
19086;BME280;9675;51.538;6.728;2022-12-07T02:06:50;101340.28;;;5.11;100.00
19086;BME280;9675;51.538;6.728;2022-12-07T02:09:19;101343.72;;;5.11;100.00
19086;BME280;9675;51.538;6.728;2022-12-07T02:11:46;101341.03;;;5.10;100.00
19086;BME280;9675;51.538;6.728;2022-12-07T02:14:13;101348.69;;;5.10;100.00
19086;BME280;9675;51.538;6.728;2022-12-07T02:16:53;101345.91;;;5.07;100.00
19086;BME280;9675;51.538;6.728;2022-12-07T02:19:58;101339.66;;;5.03;100.00
19086;BME280;9675;51.538;6.728;2022-12-07T02:22:54;101339.03;;;5.06;100.00
19086;BME280;9675;51.538;6.728;2022-12-07T02:25:47;101334.56;;;5.03;100.00
19086;BME280;9675;51.538;6.728;2022-12-07T02:28:29;101348.34;;;5.05;100.00
19086;BME280;9675;51.538;6.728;2022-12-07T02:31:07;101344.53;;;5.00;100.00
19086;BME280;9675;51.538;6.728;2022-12-07T02:33:41;101348.00;;;5.01;100.00
19086;BME280;9675;51.538;6.728;2022-12-07T02:36:17;101346.19;;;5.00;100.00
19086;BME280;9675;51.538;6.728;2022-12-07T02:38:56;101345.16;;;4.98;100.00
19086;BME280;9675;51.538;6.728;2022-12-07T02:41:31;101341.63;;;4.96;100.00
19086;BME280;9675;51.538;6.728;2022-12-07T02:44:03;101345.84;;;4.95;100.00
19086;BME280;9675;51.538;6.728;2022-12-07T02:46:40;101344.03;;;4.94;100.00
19086;BME280;9675;51.538;6.728;2022-12-07T02:49:09;101340.59;;;4.94;100.00
19086;BME280;9675;51.538;6.728;2022-12-07T02:51:41;101348.91;;;4.91;100.00
19086;BME280;9675;51.538;6.728;2022-12-07T02:54:13;101344.72;;;4.92;100.00
19086;BME280;9675;51.538;6.728;2022-12-07T02:56:47;101340.91;;;4.87;100.00
19086;BME280;9675;51.538;6.728;2022-12-07T02:59:27;101339.22;;;4.87;100.00
19086;BME280;9675;51.538;6.728;2022-12-07T03:02:11;101340.78;;;4.85;100.00
19086;BME280;9675;51.538;6.728;2022-12-07T03:04:48;101335.41;;;4.82;100.00
19086;BME280;9675;51.538;6.728;2022-12-07T03:07:32;101350.84;;;4.84;100.00
19086;BME280;9675;51.538;6.728;2022-12-07T03:10:14;101347.31;;;4.82;100.00
19086;BME280;9675;51.538;6.728;2022-12-07T03:12:48;101350.59;;;4.81;100.00
19086;BME280;9675;51.538;6.728;2022-12-07T03:15:29;101347.56;;;4.75;100.00
19086;BME280;9675;51.538;6.728;2022-12-07T03:18:03;101345.25;;;4.78;100.00
19086;BME280;9675;51.538;6.728;2022-12-07T03:20:34;101343.50;;;4.77;100.00
19086;BME280;9675;51.538;6.728;2022-12-07T03:23:06;101345.00;;;4.75;100.00
19086;BME280;9675;51.538;6.728;2022-12-07T03:25:39;101343.97;;;4.72;100.00
19086;BME280;9675;51.538;6.728;2022-12-07T03:28:10;101345.53;;;4.70;100.00
19086;BME280;9675;51.538;6.728;2022-12-07T03:30:46;101343.50;;;4.66;100.00
19086;BME280;9675;51.538;6.728;2022-12-07T03:33:23;101340.16;;;4.67;100.00
19086;BME280;9675;51.538;6.728;2022-12-07T03:36:02;101339.28;;;4.67;100.00
19086;BME280;9675;51.538;6.728;2022-12-07T03:38:35;101345.19;;;4.66;100.00
19086;BME280;9675;51.538;6.728;2022-12-07T03:41:09;101335.59;;;4.63;100.00
19086;BME280;9675;51.538;6.728;2022-12-07T03:43:39;101335.59;;;4.63;100.00
19086;BME280;9675;51.538;6.728;2022-12-07T03:46:19;101327.81;;;4.62;100.00
19086;BME280;9675;51.538;6.728;2022-12-07T03:49:00;101328.72;;;4.62;100.00
19086;BME280;9675;51.538;6.728;2022-12-07T03:51:39;101334.47;;;4.60;100.00
19086;BME280;9675;51.538;6.728;2022-12-07T03:54:13;101343.78;;;4.59;100.00
19086;BME280;9675;51.538;6.728;2022-12-07T03:56:44;101318.91;;;4.57;100.00
19086;BME280;9675;51.538;6.728;2022-12-07T03:59:14;101342.00;;;4.58;100.00
19086;BME280;9675;51.538;6.728;2022-12-07T04:01:43;101342.66;;;4.56;100.00
19086;BME280;9675;51.538;6.728;2022-12-07T04:04:11;101330.53;;;4.53;100.00
19086;BME280;9675;51.538;6.728;2022-12-07T04:06:38;101338.19;;;4.53;100.00
19086;BME280;9675;51.538;6.728;2022-12-07T04:09:05;101332.06;;;4.51;100.00
19086;BME280;9675;51.538;6.728;2022-12-07T04:11:32;101322.66;;;4.50;100.00
19086;BME280;9675;51.538;6.728;2022-12-07T04:13:59;101334.50;;;4.50;100.00
19086;BME280;9675;51.538;6.728;2022-12-07T04:16:45;101331.06;;;4.49;100.00
19086;BME280;9675;51.538;6.728;2022-12-07T04:19:14;101330.03;;;4.47;100.00
19086;BME280;9675;51.538;6.728;2022-12-07T04:21:42;101330.03;;;4.47;100.00
19086;BME280;9675;51.538;6.728;2022-12-07T04:24:09;101327.25;;;4.44;100.00
19086;BME280;9675;51.538;6.728;2022-12-07T04:26:36;101334.13;;;4.45;100.00
19086;BME280;9675;51.538;6.728;2022-12-07T04:29:03;101333.09;;;4.43;100.00
19086;BME280;9675;51.538;6.728;2022-12-07T04:31:30;101332.06;;;4.41;100.00
19086;BME280;9675;51.538;6.728;2022-12-07T04:33:57;101333.72;;;4.41;100.00
19086;BME280;9675;51.538;6.728;2022-12-07T04:36:26;101337.97;;;4.40;100.00
19086;BME280;9675;51.538;6.728;2022-12-07T04:38:54;101330.94;;;4.38;100.00
19086;BME280;9675;51.538;6.728;2022-12-07T04:41:22;101332.47;;;4.36;100.00
19086;BME280;9675;51.538;6.728;2022-12-07T04:43:53;101335.91;;;4.36;100.00
19086;BME280;9675;51.538;6.728;2022-12-07T04:46:22;101339.25;;;4.35;100.00
19086;BME280;9675;51.538;6.728;2022-12-07T04:48:49;101327.13;;;4.33;100.00
19086;BME280;9675;51.538;6.728;2022-12-07T04:51:20;101338.22;;;4.33;100.00
19086;BME280;9675;51.538;6.728;2022-12-07T04:53:50;101330.44;;;4.32;100.00
19086;BME280;9675;51.538;6.728;2022-12-07T04:56:18;101339.75;;;4.31;100.00
19086;BME280;9675;51.538;6.728;2022-12-07T04:58:47;101330.44;;;4.32;100.00
19086;BME280;9675;51.538;6.728;2022-12-07T05:01:15;101326.22;;;4.32;100.00
19086;BME280;9675;51.538;6.728;2022-12-07T05:03:43;101331.34;;;4.32;100.00
19086;BME280;9675;51.538;6.728;2022-12-07T05:06:11;101323.53;;;4.31;100.00
19086;BME280;9675;51.538;6.728;2022-12-07T05:08:38;101323.53;;;4.31;100.00
19086;BME280;9675;51.538;6.728;2022-12-07T05:11:08;101327.75;;;4.30;100.00
19086;BME280;9675;51.538;6.728;2022-12-07T05:13:55;101322.78;;;4.32;100.00
19086;BME280;9675;51.538;6.728;2022-12-07T05:16:23;101327.75;;;4.30;100.00
19086;BME280;9675;51.538;6.728;2022-12-07T05:18:50;101324.22;;;4.28;100.00
19086;BME280;9675;51.538;6.728;2022-12-07T05:21:18;101320.91;;;4.29;100.00
19086;BME280;9675;51.538;6.728;2022-12-07T05:23:45;101320.00;;;4.28;100.00
19086;BME280;9675;51.538;6.728;2022-12-07T05:26:13;101330.19;;;4.28;100.00
19086;BME280;9675;51.538;6.728;2022-12-07T05:28:41;101325.72;;;4.26;100.00
19086;BME280;9675;51.538;6.728;2022-12-07T05:31:08;101327.50;;;4.27;100.00
19086;BME280;9675;51.538;6.728;2022-12-07T05:33:35;101321.66;;;4.28;100.00
19086;BME280;9675;51.538;6.728;2022-12-07T05:36:03;101329.31;;;4.28;100.00
19086;BME280;9675;51.538;6.728;2022-12-07T05:38:31;101324.22;;;4.28;100.00
19086;BME280;9675;51.538;6.728;2022-12-07T05:41:01;101318.09;;;4.26;100.00
19086;BME280;9675;51.538;6.728;2022-12-07T05:43:30;101331.59;;;4.25;100.00
19086;BME280;9675;51.538;6.728;2022-12-07T05:45:58;101317.09;;;4.24;100.00
19086;BME280;9675;51.538;6.728;2022-12-07T05:48:25;101317.56;;;4.20;100.00
19086;BME280;9675;51.538;6.728;2022-12-07T05:50:53;101316.06;;;4.22;100.00
19086;BME280;9675;51.538;6.728;2022-12-07T05:53:20;101316.19;;;4.23;100.00
19086;BME280;9675;51.538;6.728;2022-12-07T05:55:47;101315.28;;;4.23;100.00
19086;BME280;9675;51.538;6.728;2022-12-07T05:58:14;101317.56;;;4.20;100.00
19086;BME280;9675;51.538;6.728;2022-12-07T06:01:00;101317.72;;;4.21;100.00
19086;BME280;9675;51.538;6.728;2022-12-07T06:03:27;101316.81;;;4.21;100.00
19086;BME280;9675;51.538;6.728;2022-12-07T06:05:54;101317.47;;;4.18;100.00
19086;BME280;9675;51.538;6.728;2022-12-07T06:08:21;101315.03;;;4.20;100.00
19086;BME280;9675;51.538;6.728;2022-12-07T06:10:48;101314.91;;;4.18;100.00
19086;BME280;9675;51.538;6.728;2022-12-07T06:13:37;101311.47;;;4.18;100.00
19086;BME280;9675;51.538;6.728;2022-12-07T06:16:06;101314.78;;;4.17;100.00
19086;BME280;9675;51.538;6.728;2022-12-07T06:18:33;101312.09;;;4.15;100.00
19086;BME280;9675;51.538;6.728;2022-12-07T06:21:00;101330.84;;;4.16;100.00
19086;BME280;9675;51.538;6.728;2022-12-07T06:23:27;101328.28;;;4.16;100.00
19086;BME280;9675;51.538;6.728;2022-12-07T06:25:54;101326.63;;;4.16;100.00
19086;BME280;9675;51.538;6.728;2022-12-07T06:28:21;101319.38;;;4.11;100.00
19086;BME280;9675;51.538;6.728;2022-12-07T06:30:57;101327.41;;;4.15;100.00
19086;BME280;9675;51.538;6.728;2022-12-07T06:33:26;101330.72;;;4.14;100.00
19086;BME280;9675;51.538;6.728;2022-12-07T06:35:54;101331.59;;;4.15;100.00
19086;BME280;9675;51.538;6.728;2022-12-07T06:38:21;101330.06;;;4.17;100.00
19086;BME280;9675;51.538;6.728;2022-12-07T06:40:48;101321.66;;;4.18;100.00
19086;BME280;9675;51.538;6.728;2022-12-07T06:43:15;101322.56;;;4.18;100.00
19086;BME280;9675;51.538;6.728;2022-12-07T06:45:42;101320.91;;;4.19;100.00
19086;BME280;9675;51.538;6.728;2022-12-07T06:48:09;101330.06;;;4.17;100.00
19086;BME280;9675;51.538;6.728;2022-12-07T06:50:38;101332.50;;;4.15;100.00
19086;BME280;9675;51.538;6.728;2022-12-07T06:53:05;101337.59;;;4.15;100.00
19086;BME280;9675;51.538;6.728;2022-12-07T06:55:32;101339.25;;;4.15;100.00
19086;BME280;9675;51.538;6.728;2022-12-07T06:57:59;101330.72;;;4.14;100.00
19086;BME280;9675;51.538;6.728;2022-12-07T07:00:27;101333.16;;;4.13;100.00
19086;BME280;9675;51.538;6.728;2022-12-07T07:02:54;101337.47;;;4.14;100.00
19086;BME280;9675;51.538;6.728;2022-12-07T07:05:22;101329.84;;;4.14;100.00
19086;BME280;9675;51.538;6.728;2022-12-07T07:07:51;101328.66;;;4.10;100.00
19086;BME280;9675;51.538;6.728;2022-12-07T07:10:18;101332.88;;;4.10;100.00
19086;BME280;9675;51.538;6.728;2022-12-07T07:12:45;101333.75;;;4.10;100.00
19086;BME280;9675;51.538;6.728;2022-12-07T07:15:12;101334.66;;;4.11;100.00
19086;BME280;9675;51.538;6.728;2022-12-07T07:17:39;101330.31;;;4.10;100.00
19086;BME280;9675;51.538;6.728;2022-12-07T07:20:08;101333.53;;;4.07;100.00
19086;BME280;9675;51.538;6.728;2022-12-07T07:22:35;101328.44;;;4.07;100.00
19086;BME280;9675;51.538;6.728;2022-12-07T07:25:04;101337.72;;;4.07;100.00
19086;BME280;9675;51.538;6.728;2022-12-07T07:27:31;101342.81;;;4.07;100.00
19086;BME280;9675;51.538;6.728;2022-12-07T07:29:58;101338.50;;;4.06;100.00
19086;BME280;9675;51.538;6.728;2022-12-07T07:32:25;101336.69;;;4.05;100.00
19086;BME280;9675;51.538;6.728;2022-12-07T07:34:52;101336.59;;;4.03;100.00
19086;BME280;9675;51.538;6.728;2022-12-07T07:37:19;101339.00;;;4.02;100.00
19086;BME280;9675;51.538;6.728;2022-12-07T07:39:46;101339.00;;;4.02;100.00
19086;BME280;9675;51.538;6.728;2022-12-07T07:42:15;101338.09;;;4.01;100.00
19086;BME280;9675;51.538;6.728;2022-12-07T07:44:42;101342.31;;;4.01;100.00
19086;BME280;9675;51.538;6.728;2022-12-07T07:47:09;101340.53;;;4.00;100.00
19086;BME280;9675;51.538;6.728;2022-12-07T07:49:36;101343.97;;;4.00;100.00
19086;BME280;9675;51.538;6.728;2022-12-07T07:52:05;101336.97;;;3.98;100.00
19086;BME280;9675;51.538;6.728;2022-12-07T07:54:32;101339.38;;;3.96;100.00
19086;BME280;9675;51.538;6.728;2022-12-07T07:56:59;101340.53;;;4.00;100.00
19086;BME280;9675;51.538;6.728;2022-12-07T07:59:28;101345.63;;;4.00;100.00
19086;BME280;9675;51.538;6.728;2022-12-07T08:01:55;101339.63;;;3.99;100.00
19086;BME280;9675;51.538;6.728;2022-12-07T08:04:22;101344.63;;;3.98;100.00
19086;BME280;9675;51.538;6.728;2022-12-07T08:06:49;101341.16;;;3.97;100.00
19086;BME280;9675;51.538;6.728;2022-12-07T08:09:16;101345.38;;;3.97;100.00
19086;BME280;9675;51.538;6.728;2022-12-07T08:11:43;101345.38;;;3.97;100.00
19086;BME280;9675;51.538;6.728;2022-12-07T08:14:11;101358.88;;;3.96;100.00
19086;BME280;9675;51.538;6.728;2022-12-07T08:16:39;101348.69;;;3.96;100.00
19086;BME280;9675;51.538;6.728;2022-12-07T08:19:06;101350.22;;;3.94;100.00
19086;BME280;9675;51.538;6.728;2022-12-07T08:21:33;101353.53;;;3.93;100.00
19086;BME280;9675;51.538;6.728;2022-12-07T08:24:00;101341.56;;;3.92;100.00
19086;BME280;9675;51.538;6.728;2022-12-07T08:26:27;101349.94;;;3.91;100.00
19086;BME280;9675;51.538;6.728;2022-12-07T08:28:54;101348.16;;;3.90;100.00
19086;BME280;9675;51.538;6.728;2022-12-07T08:31:22;101355.81;;;3.90;100.00
19086;BME280;9675;51.538;6.728;2022-12-07T08:33:50;101362.44;;;3.88;100.00
19086;BME280;9675;51.538;6.728;2022-12-07T08:36:18;101353.91;;;3.87;100.00
19086;BME280;9675;51.538;6.728;2022-12-07T08:38:45;101356.19;;;3.84;100.00
19086;BME280;9675;51.538;6.728;2022-12-07T08:41:12;101358.88;;;3.85;100.00
19086;BME280;9675;51.538;6.728;2022-12-07T08:43:39;101351.22;;;3.85;100.00
19086;BME280;9675;51.538;6.728;2022-12-07T08:46:13;101362.31;;;3.86;100.00
19086;BME280;9675;51.538;6.728;2022-12-07T08:48:46;101363.97;;;3.85;100.00
19086;BME280;9675;51.538;6.728;2022-12-07T08:51:17;101364.72;;;3.84;100.00
19086;BME280;9675;51.538;6.728;2022-12-07T08:53:45;101362.06;;;3.83;100.00
19086;BME280;9675;51.538;6.728;2022-12-07T08:56:12;101360.00;;;3.79;100.00
19086;BME280;9675;51.538;6.728;2022-12-07T08:58:40;101361.78;;;3.80;100.00
19086;BME280;9675;51.538;6.728;2022-12-07T09:01:07;101357.59;;;3.80;100.00
19086;BME280;9675;51.538;6.728;2022-12-07T09:03:35;101353.25;;;3.79;100.00
19086;BME280;9675;51.538;6.728;2022-12-07T09:06:02;101360.13;;;3.80;100.00
19086;BME280;9675;51.538;6.728;2022-12-07T09:08:36;101361.16;;;3.82;100.00
19086;BME280;9675;51.538;6.728;2022-12-07T09:11:05;101354.91;;;3.79;100.00
19086;BME280;9675;51.538;6.728;2022-12-07T09:13:32;101357.59;;;3.80;100.00
19086;BME280;9675;51.538;6.728;2022-12-07T09:15:59;101363.56;;;3.81;100.00
19086;BME280;9675;51.538;6.728;2022-12-07T09:18:26;101354.66;;;3.76;100.00
19086;BME280;9675;51.538;6.728;2022-12-07T09:20:53;101365.47;;;3.83;100.00
19086;BME280;9675;51.538;6.728;2022-12-07T09:23:20;101366.38;;;3.84;100.00
19086;BME280;9675;51.538;6.728;2022-12-07T09:25:49;101362.16;;;3.84;100.00
19086;BME280;9675;51.538;6.728;2022-12-07T09:28:16;101363.19;;;3.87;100.00
19086;BME280;9675;51.538;6.728;2022-12-07T09:30:46;101363.19;;;3.87;100.00
19086;BME280;9675;51.538;6.728;2022-12-07T09:33:13;101367.53;;;3.88;100.00
19086;BME280;9675;51.538;6.728;2022-12-07T09:35:44;101366.78;;;3.89;100.00
19086;BME280;9675;51.538;6.728;2022-12-07T09:38:12;101361.69;;;3.89;100.00
19086;BME280;9675;51.538;6.728;2022-12-07T09:40:40;101367.03;;;3.92;100.00
19086;BME280;9675;51.538;6.728;2022-12-07T09:43:15;101360.41;;;3.94;100.00
19086;BME280;9675;51.538;6.728;2022-12-07T09:45:47;101365.50;;;3.94;100.00
19086;BME280;9675;51.538;6.728;2022-12-07T09:48:20;101353.63;;;3.94;100.00
19086;BME280;9675;51.538;6.728;2022-12-07T09:50:49;101361.41;;;3.96;100.00
19086;BME280;9675;51.538;6.728;2022-12-07T09:53:25;101352.25;;;3.98;100.00
19086;BME280;9675;51.538;6.728;2022-12-07T09:55:53;101348.94;;;3.99;100.00
19086;BME280;9675;51.538;6.728;2022-12-07T09:58:25;101350.72;;;4.00;100.00
19086;BME280;9675;51.538;6.728;2022-12-07T10:00:56;101350.09;;;4.02;100.00
19086;BME280;9675;51.538;6.728;2022-12-07T10:03:25;101354.53;;;4.05;100.00
19086;BME280;9675;51.538;6.728;2022-12-07T10:05:53;101346.28;;;4.07;100.00
19086;BME280;9675;51.538;6.728;2022-12-07T10:08:21;101349.72;;;4.08;100.00
19086;BME280;9675;51.538;6.728;2022-12-07T10:10:51;101351.50;;;4.09;100.00
19086;BME280;9675;51.538;6.728;2022-12-07T10:13:33;101350.84;;;4.11;100.00
19086;BME280;9675;51.538;6.728;2022-12-07T10:16:00;101343.34;;;4.13;100.00
19086;BME280;9675;51.538;6.728;2022-12-07T10:18:30;101344.34;;;4.15;100.00
19086;BME280;9675;51.538;6.728;2022-12-07T10:21:16;101333.38;;;4.16;100.00
19086;BME280;9675;51.538;6.728;2022-12-07T10:24:03;101333.66;;;4.19;100.00
19086;BME280;9675;51.538;6.728;2022-12-07T10:26:34;101326.00;;;4.19;100.00
19086;BME280;9675;51.538;6.728;2022-12-07T10:29:16;101331.59;;;4.25;100.00
19086;BME280;9675;51.538;6.728;2022-12-07T10:31:45;101328.41;;;4.27;100.00
19086;BME280;9675;51.538;6.728;2022-12-07T10:34:23;101320.00;;;4.28;100.00
19086;BME280;9675;51.538;6.728;2022-12-07T10:36:51;101313.25;;;4.29;100.00
19086;BME280;9675;51.538;6.728;2022-12-07T10:39:22;101318.06;;;4.36;100.00
19086;BME280;9675;51.538;6.728;2022-12-07T10:41:55;101321.63;;;4.38;100.00
19086;BME280;9675;51.538;6.728;2022-12-07T10:44:27;101309.66;;;4.37;100.00
19086;BME280;9675;51.538;6.728;2022-12-07T10:47:11;101316.00;;;4.42;100.00
19086;BME280;9675;51.538;6.728;2022-12-07T10:50:45;101307.75;;;4.45;100.00
19086;BME280;9675;51.538;6.728;2022-12-07T10:53:30;101301.09;;;4.47;100.00
19086;BME280;9675;51.538;6.728;2022-12-07T10:56:29;101302.25;;;4.50;100.00
19086;BME280;9675;51.538;6.728;2022-12-07T10:59:27;101292.28;;;4.53;100.00
19086;BME280;9675;51.538;6.728;2022-12-07T11:02:20;101298.41;;;4.55;100.00
19086;BME280;9675;51.538;6.728;2022-12-07T11:05:06;101291.75;;;4.57;100.00
19086;BME280;9675;51.538;6.728;2022-12-07T11:07:49;101292.78;;;4.59;100.00
19086;BME280;9675;51.538;6.728;2022-12-07T11:10:26;101287.91;;;4.62;100.00
19086;BME280;9675;51.538;6.728;2022-12-07T11:13:23;101291.47;;;4.64;100.00
19086;BME280;9675;51.538;6.728;2022-12-07T11:16:24;101296.06;;;4.68;100.00
19086;BME280;9675;51.538;6.728;2022-12-07T11:19:19;101283.44;;;4.70;100.00
19086;BME280;9675;51.538;6.728;2022-12-07T11:21:56;101282.78;;;4.72;100.00
19086;BME280;9675;51.538;6.728;2022-12-07T11:24:35;101280.22;;;4.72;100.00
19086;BME280;9675;51.538;6.728;2022-12-07T11:27:23;101272.91;;;4.77;100.00
19086;BME280;9675;51.538;6.728;2022-12-07T11:30:12;101271.41;;;4.79;100.00
19086;BME280;9675;51.538;6.728;2022-12-07T11:32:57;101271.63;;;4.82;100.00
19086;BME280;9675;51.538;6.728;2022-12-07T11:35:46;101271.00;;;4.85;100.00
19086;BME280;9675;51.538;6.728;2022-12-07T11:38:17;101264.38;;;4.87;100.00
19086;BME280;9675;51.538;6.728;2022-12-07T11:40:49;101259.50;;;4.90;100.00
19086;BME280;9675;51.538;6.728;2022-12-07T11:43:25;101259.72;;;4.93;100.00
19086;BME280;9675;51.538;6.728;2022-12-07T11:46:00;101254.09;;;4.97;100.00
19086;BME280;9675;51.538;6.728;2022-12-07T11:48:37;101249.09;;;4.98;100.00
19086;BME280;9675;51.538;6.728;2022-12-07T11:51:10;101246.69;;;5.00;100.00
19086;BME280;9675;51.538;6.728;2022-12-07T11:53:44;101250.34;;;5.03;100.00
19086;BME280;9675;51.538;6.728;2022-12-07T11:56:16;101247.16;;;5.06;100.00
19086;BME280;9675;51.538;6.728;2022-12-07T11:58:52;101244.72;;;5.07;100.00
19086;BME280;9675;51.538;6.728;2022-12-07T12:01:41;101245.72;;;5.09;100.00
19086;BME280;9675;51.538;6.728;2022-12-07T12:04:33;101241.72;;;5.13;100.00
19086;BME280;9675;51.538;6.728;2022-12-07T12:07:05;101246.84;;;5.13;100.00
19086;BME280;9675;51.538;6.728;2022-12-07T12:09:39;101239.44;;;5.16;100.00
19086;BME280;9675;51.538;6.728;2022-12-07T12:12:29;101232.81;;;5.18;100.00
19086;BME280;9675;51.538;6.728;2022-12-07T12:15:16;101242.34;;;5.21;100.00
19086;BME280;9675;51.538;6.728;2022-12-07T12:18:11;101236.47;;;5.22;100.00
19086;BME280;9675;51.538;6.728;2022-12-07T12:20:47;101239.25;;;5.25;100.00
19086;BME280;9675;51.538;6.728;2022-12-07T12:23:20;101231.72;;;5.26;100.00
19086;BME280;9675;51.538;6.728;2022-12-07T12:25:52;101233.50;;;5.27;100.00
19086;BME280;9675;51.538;6.728;2022-12-07T12:28:28;101231.94;;;5.29;100.00
19086;BME280;9675;51.538;6.728;2022-12-07T12:31:13;101224.28;;;5.29;100.00
19086;BME280;9675;51.538;6.728;2022-12-07T12:33:44;101228.88;;;5.33;100.00
19086;BME280;9675;51.538;6.728;2022-12-07T12:36:25;101219.50;;;5.34;100.00
19086;BME280;9675;51.538;6.728;2022-12-07T12:39:11;101222.19;;;5.35;100.00
19086;BME280;9675;51.538;6.728;2022-12-07T12:42:17;101219.63;;;5.35;100.00
19086;BME280;9675;51.538;6.728;2022-12-07T12:45:18;101214.66;;;5.37;100.00
19086;BME280;9675;51.538;6.728;2022-12-07T12:47:56;101205.34;;;5.37;100.00
19086;BME280;9675;51.538;6.728;2022-12-07T12:50:28;101211.44;;;5.39;100.00
19086;BME280;9675;51.538;6.728;2022-12-07T12:53:12;101207.34;;;5.41;100.00
19086;BME280;9675;51.538;6.728;2022-12-07T12:56:23;101197.13;;;5.41;100.00
19086;BME280;9675;51.538;6.728;2022-12-07T12:59:22;101199.81;;;5.43;100.00
19086;BME280;9675;51.538;6.728;2022-12-07T13:01:50;101199.81;;;5.43;100.00
19086;BME280;9675;51.538;6.728;2022-12-07T13:04:53;101205.13;;;5.46;100.00
19086;BME280;9675;51.538;6.728;2022-12-07T13:07:57;101199.25;;;5.47;100.00
19086;BME280;9675;51.538;6.728;2022-12-07T13:10:40;101205.25;;;5.47;100.00
19086;BME280;9675;51.538;6.728;2022-12-07T13:13:34;101203.59;;;5.48;100.00
19086;BME280;9675;51.538;6.728;2022-12-07T13:16:39;101196.81;;;5.48;100.00
19086;BME280;9675;51.538;6.728;2022-12-07T13:19:56;101202.81;;;5.49;100.00
19086;BME280;9675;51.538;6.728;2022-12-07T13:22:48;101201.13;;;5.49;100.00
19086;BME280;9675;51.538;6.728;2022-12-07T13:25:30;101202.16;;;5.51;100.00
19086;BME280;9675;51.538;6.728;2022-12-07T13:28:13;101194.50;;;5.51;100.00
19086;BME280;9675;51.538;6.728;2022-12-07T13:30:50;101186.06;;;5.52;100.00
19086;BME280;9675;51.538;6.728;2022-12-07T13:33:20;101175.84;;;5.52;100.00